Dakin Peak, Santa Catalina Island Weather observations

Data are for 10 minute period ending at time listed.
 Day   Time   Solar   Ave.   Ave.  Ave.  Vector    Max.   Stn.    Total
  of    of     Rad.   Air    Rel.  Wind   Wind     Wind   Baro.  Precip.
Year   Day            Temp.  Hum.  Speed  Dir.     Gust   Pres.         
2015   (PST)   W/m2    F      %     mph   deg.      mph    mb.     in.  
------------------------------------------------------------------------
  86    4:10    0.0    73   23.5     9    268.6    11.3    999.0   0.00  
  86    4:20    0.0    74   23.1     8    271.0    10.2    999.0   0.00  
  86    4:30    0.0    73   23.5     8    270.3     9.0    999.0   0.00  
  86    4:40    0.0    74   23.5     8    269.8    10.2    999.0   0.00  
  86    4:50    0.0    74   23.5     8    269.2     9.6    999.0   0.00  
  86    5:00    0.0    74   23.4     9    271.2    10.2    999.0   0.00  
  86    5:10    0.0    73   23.7     9    271.2    10.2    999.0   0.00  
  86    5:20    0.0    72   24.3     9    267.1    10.2    999.0   0.00  
  86    5:30    0.0    73   23.9     9    263.0    10.8    999.0   0.00  
  86    5:40    0.0    73   23.5     9    262.2    10.8    999.0   0.00  
  86    5:50    3.0    73   23.3     8    262.2    10.2    999.0   0.00  
  86    6:00    9.0    74   22.8     9    260.5    10.2    999.0   0.00  
  86    6:10   23.0    74   22.7     8    258.9     9.0    999.0   0.00  
  86    6:20   45.0    74   22.5     7    261.0     8.4    999.0   0.00  
  86    6:30   76.0    75   22.1     7    261.7     8.4    999.0   0.00  
  86    6:40  106.0    76   22.0     6    257.9     7.8    999.0   0.00  
  86    6:50  133.0    76   22.2     5    253.2     6.0    999.0   0.00  
  86    7:00  161.0    77   22.0     4    248.6     6.0    999.0   0.00  
  86    7:10  190.0    78   21.4     3    231.9     5.4    999.0   0.00  
  86    7:20  219.0    78   21.5     3    238.1     4.8    999.0   0.00  
  86    7:30  248.0    79   21.7     3    242.2     4.8    999.0   0.00  
  86    7:40  277.0    80   21.0     4    245.9     6.0    999.0   0.00  
  86    7:50  306.0    80   20.3     3    240.5     4.8    999.0   0.00  
  86    8:00  335.0    81   19.9     4    238.3     7.2    999.0   0.00  
  86    8:10  362.0    81   20.0     5    247.0     7.2    999.0   0.00  
  86    8:20  389.0    81   19.3     5    247.6     7.8    999.0   0.00  
  86    8:30  416.0    82   19.3     4    230.8     6.0    999.0   0.00  
  86    8:40  442.0    83   19.3     4    236.0     7.8    999.0   0.00  
  86    8:50  466.0    83   19.6     6    243.4     8.4    999.0   0.00  
  86    9:00  490.0    82   19.7     6    239.3     8.4    999.0   0.00  
  86    9:10  515.0    84   20.6     4    239.2     7.8    999.0   0.00  
  86    9:20  536.0    84   20.8     5    233.8     9.0    999.0   0.00  
  86    9:30  559.0    84   28.0     3    229.0     6.6    999.0   0.00  
  86    9:40  579.0    85   33.2     3    174.3     6.0    999.0   0.00  
  86    9:50  597.0    83   40.5     4    107.6     7.2    999.0   0.00  
  86   10:00  614.0    82   40.8     5     98.5     9.0    999.0   0.00  
  86   10:10  628.0    82   39.1     6    102.0     9.6    999.0   0.00  
  86   10:20  645.0    82   36.5     5    104.6     8.4    999.0   0.00  
  86   10:30  659.0    82   34.3     6     96.9     9.0    999.0   0.00  
  86   10:40  670.0    84   30.5     7     98.9    10.2    999.0   0.00  
  86   10:50  680.0    84   30.6     8    102.8    10.2    999.0   0.00  
  86   11:00  689.0    84   29.6     7    102.4    10.8    999.0   0.00  
  86   11:10  698.0    84   29.4     8     98.8    10.8    999.0   0.00  
  86   11:20  704.0    85   28.9     8    105.0    10.2    999.0   0.00  
  86   11:30  710.0    85   28.2     8    101.5    10.8    999.0   0.00  
  86   11:40  713.0    86   28.6     8    100.9    10.2    999.0   0.00  
  86   11:50  713.0    84   29.5     7     94.0    10.2    999.0   0.00  
  86   12:00  712.0    84   30.6     7    100.6    10.8    999.0   0.00  
  86   12:10  713.0    85   31.5     7    102.8    10.2    999.0   0.00  
  86   12:20  711.0    86   29.1     7    104.2    10.2    999.0   0.00  
  86   12:30  705.0    85   31.5     7    104.5    10.8    999.0   0.00  
  86   12:40  701.0    85   31.2     6    101.1     9.0    999.0   0.00  
  86   12:50  695.0    85   31.9     6    105.0     7.8    999.0   0.00  
  86   13:00  688.0    85   32.5     6    101.3     8.4    999.0   0.00  
  86   13:10  681.0    86   33.0     4    103.5     6.6    999.0   0.00  
  86   13:20  673.0    86   34.0     4     87.0     6.6    999.0   0.00  
  86   13:30  665.0    86   28.4     5    232.9     9.0    999.0   0.00  
  86   13:40  654.0    86   23.4     4    232.1     8.4    999.0   0.00  
  86   13:50  641.0    86   21.9     5    231.2     8.4    999.0   0.00  
  86   14:00  625.0    86   19.5     7    239.4    11.3    999.0   0.00  
  86   14:10  608.0    85   19.8     8    242.4    12.5    999.0   0.00  
  86   14:20  588.0    84   20.7     9    240.6    12.5    999.0   0.00  
  86   14:30  569.0    85   21.5     8    251.5    11.9    999.0   0.00  
  86   14:40  548.0    84   21.0     9    252.7    12.5    999.0   0.00  
  86   14:50  527.0    84   22.4     8    258.7    13.1    999.0   0.00  
  86   15:00  505.0    84   23.3     9    258.7    13.1    999.0   0.00  
  86   15:10  482.0    84   23.9     9    253.0    13.7    999.0   0.00  
  86   15:20  458.0    83   23.6    10    255.9    13.1    999.0   0.00  
  86   15:30  433.0    84   22.8     8    246.3    11.3    999.0   0.00  
  86   15:40  408.0    84   21.4    10    253.2    14.9    999.0   0.00  
  86   15:50  381.0    83   21.0    11    251.7    15.5    999.0   0.00  
  86   16:00  354.0    83   20.8    12    254.1    16.7    999.0   0.00  
  86   16:10  325.0    82   20.9    14    257.3    18.5    999.0   0.00  
  86   16:20  296.0    82   20.8    14    254.6    18.5    999.0   0.00  
  86   16:30  268.0    81   21.1    15    252.4    19.7    999.0   0.00  
  86   16:40  238.0    80   21.2    16    254.5    19.1    999.0   0.00  
  86   16:50  209.0    80   21.3    16    255.8    19.1    999.0   0.00  
  86   17:00  180.0    79   21.9    16    254.2    20.3    999.0   0.00  
  86   17:10  151.0    78   22.4    18    255.8    20.9    999.0   0.00  
  86   17:20  124.0    78   22.7    18    254.3    22.1    999.0   0.00  
  86   17:30   97.0    77   23.6    18    254.3    21.5    999.0   0.00  
  86   17:40   66.0    76   24.0    19    255.0    22.1    999.0   0.00  
  86   17:50   39.0    76   23.5    19    254.5    23.3    999.0   0.00  
  86   18:00   20.0    75   22.5    18    254.9    21.5    999.0   0.00  
  86   18:10    8.0    75   22.1    18    251.8    22.1    999.0   0.00  
  86   18:20    3.0    74   22.2    18    252.7    22.7    999.0   0.00  
  86   18:30    0.0    73   22.8    18    252.2    22.1    999.0   0.00  
  86   18:40    0.0    74   22.5    18    252.2    22.7    999.0   0.00  
  86   18:50    0.0    74   21.9    18    250.9    20.9    999.0   0.00  
  86   19:00    0.0    74   21.7    18    253.0    20.3    999.0   0.00  
  86   19:10    0.0    74   21.3    18    251.8    21.5    999.0   0.00  
  86   19:20    0.0    74   21.0    18    252.5    22.1    999.0   0.00  
  86   19:30    0.0    74   21.1    18    253.8    21.5    999.0   0.00  
  86   19:40    0.0    74   21.0    19    252.5    22.7    999.0   0.00  
  86   19:50    0.0    74   21.3    18    253.2    20.9    999.0   0.00  
  86   20:00    0.0    74   21.2    17    253.7    20.3    999.0   0.00  
  86   20:10    0.0    73   21.5    18    252.5    19.7    999.0   0.00  
  86   20:20    0.0    73   21.4    18    253.7    20.9    999.0   0.00  
  86   20:30    0.0    73   21.4    17    254.8    20.3    999.0   0.00  
  86   20:40    0.0    73   21.4    16    252.9    18.5    999.0   0.00  
  86   20:50    0.0    74   20.9    16    254.6    18.5    999.0   0.00  
  86   21:00    0.0    74   20.8    15    256.4    16.7    999.0   0.00  
  86   21:10    0.0    74   20.7    14    257.4    16.1    999.0   0.00  
  86   21:20    0.0    73   21.5    14    258.0    17.9    999.0   0.00  
  86   21:30    0.0    73   22.1    16    255.0    19.1    999.0   0.00  
  86   21:40    0.0    73   22.9    16    254.8    18.5    999.0   0.00  
  86   21:50    0.0    72   23.4    14    258.1    16.7    999.0   0.00  
  86   22:00    0.0    72   23.7    14    258.4    16.7    999.0   0.00  
  86   22:10    0.0    72   24.0    14    257.3    16.7    999.0   0.00  
  86   22:20    0.0    71   25.0    12    261.9    14.9    999.0   0.00  
  86   22:30    0.0    72   24.1    10    280.9    13.1    999.0   0.00  
  86   22:40    0.0    73   22.4    12    282.5    13.1    999.0   0.00  
  86   22:50    0.0    73   22.7    12    278.1    14.3    999.0   0.00  
  86   23:00    0.0    72   23.6    10    281.9    12.5    999.0   0.00  
  86   23:10    0.0    73   24.9    11    286.9    14.3    999.0   0.00  
  86   23:20    0.0    73   26.8    11    278.1    13.7    999.0   0.00  
  86   23:30    0.0    73   25.9    11    278.7    12.5    999.0   0.00  
  86   23:40    0.0    72   25.5     9    272.3    11.9    999.0   0.00  
  86   23:50    0.0    72   27.2     8    256.7     9.0    999.0   0.00  
  87    0:00    0.0    73   26.3     9    278.5    11.3    999.0   0.00  
  87    0:10    0.0    73   25.6     9    286.0    10.8    999.0   0.00  
  87    0:20    0.0    72   26.2     9    289.6    10.8    999.0   0.00  
  87    0:30    0.0    72   27.5     9    284.7    10.8    999.0   0.00  
  87    0:40    0.0    71   28.2     9    276.2    10.2    999.0   0.00  
  87    0:50    0.0    70   28.7     9    265.1    10.8    999.0   0.00  
  87    1:00    0.0    70   28.7     9    259.6    11.3    999.0   0.00  
  87    1:10    0.0    70   29.6    10    262.4    11.3    999.0   0.00  
  87    1:20    0.0    70   29.6     9    273.8    10.8    999.0   0.00  
  87    1:30    0.0    71   29.1     9    275.0     9.6    999.0   0.00  
  87    1:40    0.0    70   29.5     9    260.6    10.8    999.0   0.00  
  87    1:50    0.0    71   27.5    10    243.9    11.9    999.0   0.00  
  87    2:00    0.0    71   26.6     8    255.4    10.8    999.0   0.00  
  87    2:10    0.0    69   28.1     7    258.1     9.0    999.0   0.00  
  87    2:20    0.0    70   28.9     7    267.8     8.4    999.0   0.00  
  87    2:30    0.0    71   28.7     5    271.2     6.6    999.0   0.00  
  87    2:40    0.0    72   27.4     4    261.4     5.4    999.0   0.00  
  87    2:50    0.0    72   26.4     4    248.7     4.8    999.0   0.00  
  87    3:00    0.0    71   27.9     2    134.8     3.6    999.0   0.00  
  87    3:10    0.0    70   29.4     2     97.3     3.6    999.0   0.00  
  87    3:20    0.0    69   30.1     2    138.7     3.0    999.0   0.00  
  87    3:30    0.0    70   27.9     0    285.0     2.4    999.0   0.00  
  87    3:40    0.0    70   27.6     2     41.0     2.4    999.0   0.00  
  87    3:50    0.0    70   27.9     3    249.8     6.0    999.0   0.00  
  87    4:00    0.0    70   27.9     4    250.0     6.0    999.0   0.00  

Return to Dakin Peak graphs page.


Western Regional Climate Center,wrcc@dri.edu